Latest Weather Observations for Bourke

IDN60801

Issued at 11:35 pm EDT Monday 20 October 2014 (issued every 30 minutes, with the page automatically refreshed every 10 minutes)

About weather observations | Map of weather stations | Latest weather observations for NSW | Other Formats
Station Details ID: 048245 Name: BOURKE AIRPORT AWS Lat: -30.04 Lon: 145.95 Height: 107.3 m
Data from the previous 72 hours. | See also: Recent months at Bourke
Date/Time
EDT
Temp
°C
App
Temp
°C
Dew
Point
Rel
Hum
%
Delta-T
°C
Wind Press
QNH
hPa
Press
MSL
hPa
Rain
since 9 am
mm
Dir
 
Spd
km/h
Gust
km/h
Spd
kts
Gust
kts
20/11:30pm 23.3 20.0 2.2 25 10.0 E 9 11 5 6 1021.1 1020.7 0.0
20/11:00pm 23.3 19.8 3.3 27 9.7 E 11 13 6 7 1021.1 1020.7 0.0
20/10:30pm 22.2 19.6 4.3 31 8.8 ENE 7 9 4 5 1020.9 1020.5 0.0
20/10:00pm 22.5 19.3 0.9 24 9.9 ENE 7 9 4 5 1020.8 1020.4 0.0
20/09:30pm 23.4 21.0 -0.1 21 10.7 ENE 2 7 1 4 1020.7 1020.3 0.0
20/09:00pm 25.2 23.5 2.0 22 11.1 ENE 0 6 0 3 1020.4 1020.0 0.0
20/08:30pm 25.7 22.2 1.1 20 11.6 NE 9 9 5 5 1020.0 1019.6 0.0
20/08:00pm 28.2 25.2 1.7 18 12.9 NNE 7 9 4 5 1019.6 1019.2 0.0
20/07:30pm 31.4 28.4 0.7 14 15.0 ESE 6 9 3 5 1019.4 1019.0 0.0
20/07:00pm 33.7 30.8 1.5 13 16.2 SSW 6 7 3 4 1018.9 1018.6 0.0
20/06:30pm 34.5 31.1 2.1 13 16.6 SE 9 13 5 7 1018.8 1018.5 0.0
20/06:00pm 35.1 30.5 1.5 12 17.0 SE 15 20 8 11 1018.7 1018.4 0.0
20/05:30pm 35.2 31.0 1.5 12 17.1 SSE 13 19 7 10 1018.8 1018.5 0.0
20/05:00pm 35.2 31.4 1.5 12 17.1 NNE 11 15 6 8 1018.9 1018.6 0.0
20/04:30pm 35.5 31.3 1.8 12 17.3 ESE 13 19 7 10 1019.1 1018.8 0.0
20/04:00pm 35.8 32.4 2.0 12 17.4 WSW 9 15 5 8 1019.4 1019.0 0.0
20/03:30pm 35.6 31.4 1.8 12 17.3 S 13 19 7 10 1019.8 1019.4 0.0
20/03:00pm 34.6 29.9 1.1 12 16.8 SSW 15 20 8 11 1020.2 1019.8 0.0
20/02:30pm 35.2 30.6 1.5 12 17.1 E 15 28 8 15 1020.7 1020.3 0.0
20/02:00pm 34.7 30.6 2.3 13 16.6 ENE 13 19 7 10 1021.2 1020.8 0.0
20/01:30pm 34.4 29.5 2.0 13 16.5 S 17 26 9 14 1021.7 1021.3 0.0
20/01:00pm 34.1 29.9 1.8 13 16.3 SE 13 24 7 13 1022.1 1021.7 0.0
20/12:30pm 34.0 30.2 1.7 13 16.4 SSE 11 20 6 11 1022.5 1022.1 0.0
20/12:00pm 33.2 29.6 3.1 15 15.5 SSW 11 15 6 8 1023.0 1022.6 0.0
20/11:30am 33.0 29.8 2.9 15 15.5 NW 9 15 5 8 1023.4 1023.0 0.0
20/11:00am 31.7 28.2 3.7 17 14.4 N 11 19 6 10 1023.7 1023.3 0.0
20/10:30am 31.8 28.6 5.3 19 14.1 NNW 11 20 6 11 1023.8 1023.4 0.0
20/10:00am 30.2 26.6 4.8 20 13.2 N 13 20 7 11 1023.9 1023.5 0.0
20/09:30am 28.2 24.6 5.1 23 12.0 N 13 19 7 10 1023.9 1023.5 0.0
20/09:00am 26.1 22.8 4.6 25 10.8 N 11 17 6 9 1023.6 1023.2 0.0
20/08:30am 23.9 20.6 4.3 28 9.7 NNE 11 15 6 8 1023.4 1023.0 0.0
20/08:00am 21.2 18.7 4.7 34 8.1 ENE 7 9 4 5 1023.2 1022.8 0.0
20/07:30am 19.1 16.7 5.2 40 6.8 E 7 9 4 5 1022.8 1022.4 0.0
20/07:00am 15.0 12.2 3.2 45 5.3 ENE 7 9 4 5 1022.3 1021.9 0.0
20/06:30am 14.8 11.6 3.0 45 5.3 NE 9 9 5 5 1022.0 1021.6 0.0
20/06:00am 14.9 11.7 2.8 44 5.4 NE 9 11 5 6 1021.7 1021.3 0.0
20/05:30am 15.3 11.9 1.8 40 6.0 NE 9 11 5 6 1021.6 1021.2 0.0
20/05:00am 15.9 12.3 3.0 42 5.9 ENE 11 11 6 6 1021.4 1021.0 0.0
20/04:30am 16.3 13.1 3.0 41 6.1 E 9 9 5 5 1021.3 1020.9 0.0
20/04:00am 16.9 13.6 2.5 38 6.5 E 9 9 5 5 1021.2 1020.8 0.0
20/03:30am 18.5 15.8 3.9 38 6.9 E 7 9 4 5 1021.3 1020.9 0.0
20/03:00am 17.5 14.3 3.0 38 6.7 ENE 9 9 5 5 1021.3 1020.9 0.0
20/02:30am 18.0 15.0 3.9 39 6.7 ENE 9 11 5 6 1021.5 1021.1 0.0
20/02:00am 18.7 15.5 2.9 35 7.3 ENE 9 11 5 6 1021.7 1021.3 0.0
20/01:30am 17.9 14.4 1.4 33 7.4 ENE 9 11 5 6 1021.7 1021.3 0.0
20/01:00am 18.4 15.5 4.9 41 6.5 E 9 11 5 6 1022.1 1021.7 0.0
20/12:30am 17.9 14.3 0.6 31 7.6 ENE 9 11 5 6 1022.4 1022.0 0.0
20/12:00am 19.7 16.5 0.7 28 8.5 ENE 7 9 4 5 1022.6 1022.2 0.0
 
Date/Time
EDT
Temp
°C
App
Temp
°C
Dew
Point
Rel
Hum
%
Delta-T
°C
Wind Press
QNH
hPa
Press
MSL
hPa
Rain
since 9 am
mm
Dir
 
Spd
km/h
Gust
km/h
Spd
kts
Gust
kts
19/11:30pm 20.6 17.1 1.0 27 8.9 ENE 9 9 5 5 1022.4 1022.0 0.0
19/11:00pm 21.0 17.7 2.3 29 8.7 ENE 9 11 5 6 1022.3 1021.9 0.0
19/10:30pm 21.9 17.9 3.1 29 9.0 E 13 13 7 7 1022.2 1021.8 0.0
19/10:00pm 20.9 17.4 1.2 27 9.0 E 9 11 5 6 1022.1 1021.7 0.0
19/09:30pm 21.8 18.5 0.4 24 9.7 ESE 7 7 4 4 1021.9 1021.5 0.0
19/09:00pm 22.9 19.5 1.8 25 9.9 ESE 9 11 5 6 1021.7 1021.3 0.0
19/08:30pm 24.2 21.0 -0.2 20 11.2 E 6 7 3 4 1021.4 1021.0 0.0
19/08:00pm 26.1 22.9 -0.8 17 12.3 E 6 7 3 4 1020.9 1020.5 0.0
19/07:30pm 28.8 25.4 -0.4 15 13.8 E 7 7 4 4 1020.7 1020.3 0.0
19/07:00pm 31.6 28.3 -0.1 13 15.3 E 7 11 4 6 1020.3 1019.9 0.0
19/06:30pm 32.2 28.8 -0.8 12 15.9 ESE 7 15 4 8 1020.1 1019.7 0.0
19/06:00pm 32.5 28.4 -0.5 12 15.9 ENE 11 15 6 8 1019.9 1019.5 0.0
19/05:30pm 32.9 28.4 -0.2 12 16.1 ENE 13 20 7 11 1019.8 1019.4 0.0
19/05:00pm 32.9 28.4 -0.2 12 16.1 NNE 13 20 7 11 1019.8 1019.4 0.0
19/04:30pm 33.2 29.5 0.0 12 16.3 WSW 9 17 5 9 1019.9 1019.5 0.0
19/04:00pm 32.2 27.6 -0.8 12 15.8 SE 13 19 7 10 1020.2 1019.8 0.0
19/03:30pm 33.0 28.9 -0.2 12 16.2 NE 11 20 6 11 1020.5 1020.1 0.0
19/03:00pm 32.4 28.8 0.5 13 15.6 N 9 15 5 8 1020.9 1020.5 0.0
19/02:30pm 31.8 28.0 -1.1 12 15.7 ESE 9 17 5 9 1021.3 1020.9 0.0
19/02:00pm 32.2 26.5 0.3 13 15.6 ENE 20 26 11 14 1021.8 1021.4 0.0
19/01:30pm 31.6 27.7 0.9 14 15.1 N 11 22 6 12 1022.4 1022.0 0.0
19/01:00pm 31.2 27.6 0.6 14 14.9 ENE 9 17 5 9 1023.0 1022.6 0.0
19/12:30pm 30.9 26.6 1.3 15 14.6 N 13 22 7 12 1023.5 1023.1 0.0
19/12:00pm 29.9 24.9 1.4 16 13.9 E 17 26 9 14 1023.9 1023.5 0.0
19/11:30am 29.6 24.2 1.1 16 13.9 ENE 19 26 10 14 1024.4 1024.0 0.0
19/11:00am 29.1 22.7 0.7 16 13.6 ENE 24 32 13 17 1024.9 1024.6 0.0
19/10:30am 28.1 22.4 0.8 17 13.1 ENE 20 26 11 14 1025.1 1024.8 0.0
19/10:00am 27.0 21.6 1.4 19 12.3 NE 19 24 10 13 1025.2 1024.9 0.0
19/09:30am 24.9 19.2 0.4 20 11.4 NE 20 26 11 14 1025.3 1025.0 0.0
19/09:00am 23.6 18.6 1.3 23 10.4 NE 17 24 9 13 1025.3 1025.0 0.0
19/08:30am 21.3 15.9 1.0 26 9.3 ENE 19 26 10 14 1025.1 1024.8 0.0
19/08:00am 19.5 14.9 1.5 30 8.2 E 15 20 8 11 1025.1 1024.8 0.0
19/07:30am 17.6 12.9 1.2 33 7.3 E 15 20 8 11 1024.7 1024.4 0.0
19/07:00am 16.3 11.1 0.4 34 6.9 E 17 20 9 11 1024.2 1023.8 0.0
19/06:30am 14.9 11.0 1.4 40 5.9 E 11 15 6 8 1023.8 1023.4 0.0
19/06:00am 16.5 12.5 0.2 33 7.0 E 11 15 6 8 1023.3 1022.9 0.0
19/05:30am 16.9 12.8 0.1 32 7.3 E 11 17 6 9 1023.1 1022.7 0.0
19/05:00am 17.5 13.3 1.5 34 7.1 E 13 20 7 11 1022.9 1022.5 0.0
19/04:30am 16.9 12.6 1.0 34 7.0 ESE 13 15 7 8 1022.8 1022.4 0.0
19/04:00am 17.2 12.8 0.4 32 7.3 ESE 13 15 7 8 1022.7 1022.3 0.0
19/03:30am 17.6 13.6 0.7 32 7.5 E 11 13 6 7 1022.7 1022.3 0.0
19/03:00am 18.7 14.4 1.2 31 7.8 ESE 13 15 7 8 1022.8 1022.4 0.0
19/02:30am 18.7 14.5 1.7 32 7.7 ESE 13 15 7 8 1023.1 1022.7 0.0
19/02:00am 18.5 14.3 1.9 33 7.5 ESE 13 17 7 9 1023.2 1022.8 0.0
19/01:30am 18.1 13.9 1.6 33 7.4 ESE 13 15 7 8 1023.4 1023.0 0.0
19/01:00am 18.8 14.9 1.3 31 7.9 ESE 11 13 6 7 1023.6 1023.2 0.0
19/12:30am 19.3 15.0 0.8 29 8.3 ESE 13 15 7 8 1023.7 1023.3 0.0
19/12:00am 20.2 15.9 1.1 28 8.6 ESE 13 15 7 8 1023.7 1023.3 0.0
 
Date/Time
EDT
Temp
°C
App
Temp
°C
Dew
Point
Rel
Hum
%
Delta-T
°C
Wind Press
QNH
hPa
Press
MSL
hPa
Rain
since 9 am
mm
Dir
 
Spd
km/h
Gust
km/h
Spd
kts
Gust
kts
18/11:30pm 19.8 15.8 0.8 28 8.6 ESE 11 15 6 8 1023.8 1023.4 0.0
18/11:00pm 20.4 16.1 0.8 27 8.8 ESE 13 15 7 8 1023.8 1023.4 0.0
18/10:30pm 20.8 16.8 0.6 26 9.1 ESE 11 13 6 7 1023.8 1023.4 0.0
18/10:00pm 21.5 17.6 1.2 26 9.3 E 11 15 6 8 1023.8 1023.4 0.0
18/09:30pm 21.9 18.0 1.0 25 9.6 E 11 13 6 7 1023.6 1023.2 0.0
18/09:00pm 22.1 18.1 0.6 24 9.8 E 11 13 6 7 1023.2 1022.8 0.0
18/08:30pm 22.4 18.5 0.9 24 9.9 E 11 13 6 7 1022.8 1022.4 0.0
18/08:00pm 23.3 19.1 -0.9 20 10.8 E 11 13 6 7 1022.5 1022.1 0.0
18/07:30pm 25.4 20.9 -0.6 18 11.9 E 13 15 7 8 1022.1 1021.7 0.0
18/07:00pm 27.6 22.6 -1.3 15 13.3 E 15 20 8 11 1021.9 1021.5 0.0
18/06:30pm 28.3 23.2 -1.7 14 13.8 E 15 20 8 11 1021.4 1021.0 0.0
18/06:00pm 28.9 23.4 -2.3 13 14.2 E 17 24 9 13 1021.2 1020.8 0.0
18/05:30pm 29.6 23.9 -0.7 14 14.3 ESE 19 26 10 14 1021.0 1020.6 0.0
18/05:00pm 28.8 23.0 -1.3 14 13.9 E 19 28 10 15 1021.0 1020.6 0.0
18/04:30pm 29.2 23.5 -1.0 14 14.2 ESE 19 28 10 15 1021.1 1020.7 0.0
18/04:00pm 29.6 23.7 -0.7 14 14.3 E 20 28 11 15 1021.3 1020.9 0.0
18/03:30pm 28.8 24.3 -0.4 15 13.8 ENE 13 24 7 13 1021.8 1021.4 0.0
18/03:00pm 28.4 23.1 -0.7 15 13.6 ESE 17 28 9 15 1022.3 1021.9 0.0
18/02:30pm 28.6 23.4 0.3 16 13.5 E 17 26 9 14 1022.8 1022.4 0.0
18/02:00pm 28.2 24.4 -0.9 15 13.5 ESE 9 22 5 12 1023.4 1023.0 0.0
18/01:30pm 27.3 22.5 0.1 17 12.8 E 15 30 8 16 1023.8 1023.4 0.0
18/01:00pm 26.3 22.4 0.9 19 12.0 NNE 11 19 6 10 1024.1 1023.7 0.0
18/12:30pm 26.2 21.6 1.5 20 11.8 E 15 22 8 12 1024.6 1024.3 0.0
18/12:00pm 26.5 22.2 3.1 22 11.5 ESE 15 26 8 14 1025.1 1024.8 0.0
18/11:30am 25.5 21.1 4.6 26 10.6 E 17 26 9 14 1025.5 1025.2 0.0
18/11:00am 24.5 20.5 4.8 28 9.9 E 15 26 8 14 1026.0 1025.7 0.0
18/10:30am 23.1 18.9 5.5 32 8.9 E 17 22 9 12 1026.2 1025.9 0.0
18/10:00am 21.7 17.4 5.2 34 8.2 E 17 24 9 13 1026.2 1025.9 0.0
18/09:30am 20.8 16.6 5.6 37 7.6 E 17 24 9 13 1026.0 1025.7 0.0
18/09:00am 19.2 14.0 5.3 40 6.8 E 22 28 12 15 1025.9 1025.6 0.0
18/08:30am 17.9 12.9 4.5 41 6.4 E 20 28 11 15 1025.6 1025.3 0.0
18/08:00am 16.9 11.9 3.6 41 6.2 E 19 28 10 15 1025.3 1025.0 0.0
18/07:30am 15.5 10.5 1.6 39 6.1 ESE 17 24 9 13 1025.1 1024.8 0.0
18/07:00am 13.8 9.5 0.8 41 5.5 ESE 13 19 7 10 1024.4 1024.0 0.0
18/06:30am 13.9 9.5 0.5 40 5.7 ESE 13 19 7 10 1023.9 1023.5 0.0
18/06:00am 13.4 8.7 0.8 42 5.3 ESE 15 19 8 10 1023.4 1023.0 0.0
18/05:30am 11.7 7.9 -0.8 42 5.0 ESE 9 11 5 6 1023.2 1022.8 0.0
18/05:00am 12.4 8.3 -0.5 41 5.3 SE 11 13 6 7 1023.0 1022.6 0.0
18/04:30am 11.9 8.1 -0.9 41 5.2 SE 9 9 5 5 1022.9 1022.5 0.0
18/04:00am 10.9 7.4 -1.5 42 4.9 ESE 7 9 4 5 1022.8 1022.4 0.0
18/03:30am 11.7 8.2 -1.4 40 5.2 ESE 7 9 4 5 1022.7 1022.3 0.0
18/03:00am 12.4 9.0 -0.5 41 5.3 ESE 7 9 4 5 1022.8 1022.4 0.0
18/02:30am 12.2 8.7 -1.3 39 5.4 SE 7 9 4 5 1022.9 1022.5 0.0
18/02:00am 14.2 10.4 -0.6 36 6.1 SE 9 11 5 6 1022.9 1022.5 0.0
18/01:30am 13.9 9.6 -1.3 35 6.2 SE 11 13 6 7 1022.9 1022.5 0.0
18/01:00am 14.8 11.4 -0.9 34 6.5 ESE 7 9 4 5 1023.1 1022.7 0.0
18/12:30am 14.8 11.0 -0.9 34 6.5 ESE 9 11 5 6 1023.3 1022.9 0.0
18/12:00am 14.2 10.6 -1.8 33 6.4 E 7 9 4 5 1023.2 1022.8 0.0

Other Formats:

Comma delimited format used in spreadsheet applications
http://www.bom.gov.au/fwo/IDN60801/IDN60801.94703.axf

JavaScript Object Notation format (JSON) in row-major order
http://www.bom.gov.au/fwo/IDN60801/IDN60801.94703.json